RYR9RX EPGD-EGNM
Flight info
| Callsign | RYR9RX |
|---|---|
| Flight time | N/A |
| Altitude | 38000 |
| Route | DEXIR T671 AGODU DCT BINKA L23 LEGSA DCT BERIM DCT MIMVA DCT OTBED Y70 GOLES |
| Aircraft | B738/M-SDE2E3FGHIRWXY/LB1 |
Departure
| Time | N/A |
|---|---|
| Airport | Gdańsk Lech Wałęsa Airport (EPGD) |
Arrival
| Time | 2026-05-04 11:31 |
|---|---|
| Airport | Leeds Bradford Airport (EGNM) |
| Time | Latitude | Longitude | Altitude | Speed | Heading |
|---|---|---|---|---|---|
| 2026-05-04 10:36 | 53.41683 | 6.52981 | 37980 ft | 407 kts | 259° |
| 2026-05-04 10:37 | 53.40892 | 6.43587 | 37993 ft | 407 kts | 259° |
| 2026-05-04 10:37 | 53.40094 | 6.34202 | 38006 ft | 407 kts | 259° |
| 2026-05-04 10:39 | 53.37240 | 6.01342 | 38015 ft | 409 kts | 259° |
| 2026-05-04 10:40 | 53.36410 | 5.91975 | 38021 ft | 409 kts | 258° |
| 2026-05-04 10:40 | 53.35579 | 5.82692 | 38022 ft | 409 kts | 258° |
| 2026-05-04 10:41 | 53.34727 | 5.73252 | 38018 ft | 409 kts | 258° |
| 2026-05-04 10:41 | 53.33869 | 5.63835 | 38018 ft | 409 kts | 258° |
| 2026-05-04 10:42 | 53.33004 | 5.54428 | 38020 ft | 409 kts | 258° |
| 2026-05-04 10:42 | 53.32132 | 5.45036 | 38019 ft | 409 kts | 258° |
| 2026-05-04 10:43 | 53.31258 | 5.35674 | 38019 ft | 409 kts | 259° |
| 2026-05-04 10:44 | 53.33537 | 5.02153 | 38024 ft | 418 kts | 275° |
| 2026-05-04 10:45 | 53.33992 | 4.97341 | 38019 ft | 418 kts | 274° |
| 2026-05-04 10:45 | 53.34872 | 4.87782 | 38022 ft | 418 kts | 274° |
| 2026-05-04 10:46 | 53.35739 | 4.78154 | 38021 ft | 419 kts | 274° |
| 2026-05-04 10:46 | 53.36601 | 4.68474 | 38031 ft | 419 kts | 274° |
| 2026-05-04 10:47 | 53.37455 | 4.58786 | 38026 ft | 420 kts | 274° |
| 2026-05-04 10:47 | 53.38298 | 4.49141 | 38030 ft | 421 kts | 274° |
| 2026-05-04 10:49 | 53.41618 | 4.10207 | 38023 ft | 423 kts | 274° |
| 2026-05-04 10:50 | 53.42433 | 4.00410 | 38022 ft | 424 kts | 273° |
| 2026-05-04 10:52 | 53.45603 | 3.61296 | 38028 ft | 424 kts | 273° |
| 2026-05-04 10:52 | 53.46377 | 3.51486 | 38026 ft | 424 kts | 273° |
| 2026-05-04 10:54 | 53.49393 | 3.12215 | 38029 ft | 424 kts | 273° |
| 2026-05-04 10:56 | 53.52287 | 2.72785 | 38037 ft | 428 kts | 272° |
| 2026-05-04 10:57 | 53.52877 | 2.64521 | 38044 ft | 428 kts | 272° |
| 2026-05-04 10:57 | 53.53580 | 2.54554 | 38040 ft | 429 kts | 272° |
| 2026-05-04 10:58 | 53.54276 | 2.44569 | 37911 ft | 432 kts | 272° |
| 2026-05-04 10:58 | 53.54626 | 2.39493 | 37480 ft | 434 kts | 272° |
| 2026-05-04 10:58 | 53.54972 | 2.34481 | 37046 ft | 429 kts | 271° |
| 2026-05-04 10:58 | 53.55309 | 2.29566 | 36650 ft | 425 kts | 271° |
| 2026-05-04 10:59 | 53.55645 | 2.24650 | 36255 ft | 420 kts | 271° |
| 2026-05-04 10:59 | 53.55974 | 2.19792 | 35870 ft | 416 kts | 270° |
| 2026-05-04 10:59 | 53.56297 | 2.14971 | 35470 ft | 413 kts | 270° |
| 2026-05-04 10:59 | 53.56616 | 2.10195 | 35076 ft | 409 kts | 269° |
| 2026-05-04 11:00 | 53.56929 | 2.05452 | 34689 ft | 406 kts | 269° |
| 2026-05-04 11:01 | 53.59007 | 1.73265 | 31892 ft | 384 kts | 268° |
| 2026-05-04 11:02 | 53.59289 | 1.68785 | 31522 ft | 381 kts | 268° |
| 2026-05-04 11:02 | 53.59563 | 1.64411 | 31156 ft | 378 kts | 268° |
| 2026-05-04 11:05 | 53.63057 | 1.06082 | 26011 ft | 338 kts | 270° |
| 2026-05-04 11:06 | 53.63283 | 1.02140 | 25664 ft | 336 kts | 270° |
| 2026-05-04 11:06 | 53.63502 | 0.98285 | 25326 ft | 334 kts | 270° |
| 2026-05-04 11:06 | 53.63723 | 0.94393 | 24991 ft | 333 kts | 270° |
| 2026-05-04 11:06 | 53.63941 | 0.90512 | 24636 ft | 332 kts | 271° |
| 2026-05-04 11:08 | 53.65411 | 0.63776 | 22145 ft | 321 kts | 272° |
| 2026-05-04 11:10 | 53.66767 | 0.38081 | 19850 ft | 310 kts | 272° |
| 2026-05-04 11:12 | 53.68042 | 0.12913 | 17505 ft | 305 kts | 273° |
| 2026-05-04 11:12 | 53.68219 | 0.09352 | 17168 ft | 303 kts | 272° |
| 2026-05-04 11:12 | 53.68393 | 0.05812 | 16843 ft | 301 kts | 272° |
| 2026-05-04 11:12 | 53.68563 | 0.02342 | 16525 ft | 299 kts | 272° |
| 2026-05-04 11:13 | 53.68732 | -0.01144 | 16210 ft | 297 kts | 272° |
| 2026-05-04 11:13 | 53.68901 | -0.04633 | 15902 ft | 296 kts | 272° |
| 2026-05-04 11:13 | 53.69066 | -0.08087 | 15582 ft | 295 kts | 272° |
| 2026-05-04 11:13 | 53.69231 | -0.11533 | 15273 ft | 294 kts | 272° |
| 2026-05-04 11:14 | 53.69284 | -0.12651 | 15170 ft | 293 kts | 272° |
| 2026-05-04 11:14 | 53.69606 | -0.19480 | 14540 ft | 291 kts | 272° |
| 2026-05-04 11:16 | 53.70780 | -0.45138 | 12127 ft | 281 kts | 272° |
| 2026-05-04 11:16 | 53.70927 | -0.48437 | 11834 ft | 281 kts | 272° |
| 2026-05-04 11:16 | 53.71071 | -0.51699 | 11505 ft | 282 kts | 272° |
| 2026-05-04 11:17 | 53.71216 | -0.54989 | 11209 ft | 280 kts | 272° |
| 2026-05-04 11:17 | 53.71359 | -0.58259 | 10907 ft | 279 kts | 272° |
| 2026-05-04 11:19 | 53.72302 | -0.80365 | 8999 ft | 262 kts | 273° |
| 2026-05-04 11:19 | 53.72430 | -0.83433 | 8713 ft | 261 kts | 273° |
| 2026-05-04 11:19 | 53.72556 | -0.86484 | 8430 ft | 260 kts | 273° |
| 2026-05-04 11:19 | 53.72681 | -0.89525 | 8145 ft | 259 kts | 274° |
| 2026-05-04 11:20 | 53.72805 | -0.92551 | 7867 ft | 258 kts | 274° |
| 2026-05-04 11:20 | 53.72927 | -0.95570 | 7584 ft | 257 kts | 274° |
| 2026-05-04 11:20 | 53.73048 | -0.98576 | 7304 ft | 256 kts | 274° |
| 2026-05-04 11:20 | 53.73169 | -1.01573 | 7072 ft | 252 kts | 274° |
| 2026-05-04 11:22 | 53.73855 | -1.19052 | 5798 ft | 196 kts | 274° |
| 2026-05-04 11:22 | 53.73928 | -1.20970 | 5572 ft | 193 kts | 274° |
| 2026-05-04 11:23 | 53.74012 | -1.23165 | 5452 ft | 183 kts | 274° |
| 2026-05-04 11:23 | 53.74093 | -1.25294 | 5185 ft | 181 kts | 274° |
| 2026-05-04 11:24 | 53.74567 | -1.37905 | 4351 ft | 182 kts | 275° |
| 2026-05-04 11:25 | 53.74645 | -1.40017 | 4151 ft | 178 kts | 275° |
| 2026-05-04 11:25 | 53.74721 | -1.42108 | 3962 ft | 178 kts | 275° |
| 2026-05-04 11:25 | 53.74797 | -1.44202 | 3793 ft | 179 kts | 275° |
| 2026-05-04 11:26 | 53.75105 | -1.48369 | 3380 ft | 181 kts | 304° |
| 2026-05-04 11:27 | 53.81172 | -1.57683 | 2160 ft | 146 kts | 321° |
| 2026-05-04 11:28 | 53.81920 | -1.58841 | 1941 ft | 144 kts | 321° |
| 2026-05-04 11:28 | 53.82642 | -1.59956 | 1754 ft | 140 kts | 321° |
| 2026-05-04 11:28 | 53.83380 | -1.61073 | 1542 ft | 145 kts | 322° |
| 2026-05-04 11:28 | 53.84115 | -1.62223 | 1249 ft | 144 kts | 320° |
| 2026-05-04 11:29 | 53.84846 | -1.63385 | 1030 ft | 144 kts | 319° |
| 2026-05-04 11:29 | 53.85577 | -1.64504 | 821 ft | 143 kts | 319° |
| 2026-05-04 11:29 | 53.86308 | -1.65627 | 681 ft | 140 kts | 318° |
| 2026-05-04 11:29 | 53.86929 | -1.66577 | 671 ft | 91 kts | 318° |
| 2026-05-04 11:31 | 53.87159 | -1.66940 | 684 ft | 12 kts | 140° |
| 2026-05-04 11:33 | 53.86814 | -1.65903 | 664 ft | 11 kts | 92° |
| 2026-05-04 11:33 | 53.86819 | -1.65787 | 664 ft | 9 kts | 58° |
| 2026-05-04 11:33 | 53.86858 | -1.65760 | 664 ft | 5 kts | 359° |
| 2026-05-04 11:34 | 53.86877 | -1.65760 | 664 ft | 0 kts | 0° |
| 2026-05-04 11:34 | 53.86881 | -1.65760 | 664 ft | 0 kts | 1° |